sensor_id;sensor_type;location;lat;lon;timestamp;temperature;humidity
55036;DHT22;40936;53.008;6.556;2022-08-25T00:01:42;19.90;99.90
55036;DHT22;40936;53.008;6.556;2022-08-25T00:04:10;19.90;99.90
55036;DHT22;40936;53.008;6.556;2022-08-25T00:06:37;19.80;99.90
55036;DHT22;40936;53.008;6.556;2022-08-25T00:09:04;19.80;99.90
55036;DHT22;40936;53.008;6.556;2022-08-25T00:11:32;19.80;99.90
55036;DHT22;40936;53.008;6.556;2022-08-25T00:14:03;19.80;99.90
55036;DHT22;40936;53.008;6.556;2022-08-25T00:16:30;19.70;99.90
55036;DHT22;40936;53.008;6.556;2022-08-25T00:18:59;19.70;99.90
55036;DHT22;40936;53.008;6.556;2022-08-25T00:21:26;19.70;99.90
55036;DHT22;40936;53.008;6.556;2022-08-25T00:23:52;19.70;99.90
55036;DHT22;40936;53.008;6.556;2022-08-25T00:26:18;19.70;99.90
55036;DHT22;40936;53.008;6.556;2022-08-25T00:28:45;19.60;99.90
55036;DHT22;40936;53.008;6.556;2022-08-25T00:31:13;19.60;99.90
55036;DHT22;40936;53.008;6.556;2022-08-25T00:33:39;19.60;99.90
55036;DHT22;40936;53.008;6.556;2022-08-25T00:36:05;19.50;99.90
55036;DHT22;40936;53.008;6.556;2022-08-25T00:38:31;19.60;99.90
55036;DHT22;40936;53.008;6.556;2022-08-25T00:40:57;19.50;99.90
55036;DHT22;40936;53.008;6.556;2022-08-25T00:43:45;19.50;99.90
55036;DHT22;40936;53.008;6.556;2022-08-25T00:46:16;19.50;99.90
55036;DHT22;40936;53.008;6.556;2022-08-25T00:48:44;19.40;99.90
55036;DHT22;40936;53.008;6.556;2022-08-25T00:51:14;19.40;99.90
55036;DHT22;40936;53.008;6.556;2022-08-25T00:53:42;19.80;99.90
55036;DHT22;40936;53.008;6.556;2022-08-25T00:56:09;19.40;99.90
55036;DHT22;40936;53.008;6.556;2022-08-25T00:58:35;19.40;99.90
55036;DHT22;40936;53.008;6.556;2022-08-25T01:01:02;20.60;99.90
55036;DHT22;40936;53.008;6.556;2022-08-25T01:03:29;19.40;99.90
55036;DHT22;40936;53.008;6.556;2022-08-25T01:05:59;19.30;99.90
55036;DHT22;40936;53.008;6.556;2022-08-25T01:08:27;19.30;99.90
55036;DHT22;40936;53.008;6.556;2022-08-25T01:10:54;18.10;99.90
55036;DHT22;40936;53.008;6.556;2022-08-25T01:13:33;19.30;99.90
55036;DHT22;40936;53.008;6.556;2022-08-25T01:16:00;19.30;99.90
55036;DHT22;40936;53.008;6.556;2022-08-25T01:18:27;19.30;99.90
55036;DHT22;40936;53.008;6.556;2022-08-25T01:20:55;19.30;99.90
55036;DHT22;40936;53.008;6.556;2022-08-25T01:23:22;19.30;99.90
55036;DHT22;40936;53.008;6.556;2022-08-25T01:28:19;19.20;99.90
55036;DHT22;40936;53.008;6.556;2022-08-25T01:30:45;19.10;99.90
55036;DHT22;40936;53.008;6.556;2022-08-25T01:33:11;19.10;99.90
55036;DHT22;40936;53.008;6.556;2022-08-25T01:35:38;19.10;99.90
55036;DHT22;40936;53.008;6.556;2022-08-25T01:38:06;19.10;99.90
55036;DHT22;40936;53.008;6.556;2022-08-25T01:40:33;19.10;99.90
55036;DHT22;40936;53.008;6.556;2022-08-25T01:45:44;19.00;99.90
55036;DHT22;40936;53.008;6.556;2022-08-25T01:48:11;19.00;99.90
55036;DHT22;40936;53.008;6.556;2022-08-25T01:50:39;19.00;99.90
55036;DHT22;40936;53.008;6.556;2022-08-25T01:53:21;19.00;99.90
55036;DHT22;40936;53.008;6.556;2022-08-25T01:55:47;19.00;99.90
55036;DHT22;40936;53.008;6.556;2022-08-25T01:58:37;19.00;99.90
55036;DHT22;40936;53.008;6.556;2022-08-25T02:01:07;19.00;99.90
55036;DHT22;40936;53.008;6.556;2022-08-25T02:03:36;19.00;99.90
55036;DHT22;40936;53.008;6.556;2022-08-25T02:06:04;19.00;99.90
55036;DHT22;40936;53.008;6.556;2022-08-25T02:08:30;19.00;99.90
55036;DHT22;40936;53.008;6.556;2022-08-25T02:10:56;18.90;99.90
55036;DHT22;40936;53.008;6.556;2022-08-25T02:13:22;18.90;99.90
55036;DHT22;40936;53.008;6.556;2022-08-25T02:15:51;18.90;99.90
55036;DHT22;40936;53.008;6.556;2022-08-25T02:18:18;18.90;99.90
55036;DHT22;40936;53.008;6.556;2022-08-25T02:20:44;18.90;99.90
55036;DHT22;40936;53.008;6.556;2022-08-25T02:23:10;18.90;99.90
55036;DHT22;40936;53.008;6.556;2022-08-25T02:25:38;18.90;99.90
55036;DHT22;40936;53.008;6.556;2022-08-25T02:28:05;18.90;99.90
55036;DHT22;40936;53.008;6.556;2022-08-25T02:30:31;18.80;99.90
55036;DHT22;40936;53.008;6.556;2022-08-25T02:32:57;18.90;99.90
55036;DHT22;40936;53.008;6.556;2022-08-25T02:35:23;18.90;99.90
55036;DHT22;40936;53.008;6.556;2022-08-25T02:37:50;18.90;99.90
55036;DHT22;40936;53.008;6.556;2022-08-25T02:40:16;18.90;99.90
55036;DHT22;40936;53.008;6.556;2022-08-25T02:42:42;18.80;99.90
55036;DHT22;40936;53.008;6.556;2022-08-25T02:45:09;18.90;99.90
55036;DHT22;40936;53.008;6.556;2022-08-25T02:47:35;18.90;99.90
55036;DHT22;40936;53.008;6.556;2022-08-25T02:50:05;18.90;99.90
55036;DHT22;40936;53.008;6.556;2022-08-25T02:52:31;18.90;99.90
55036;DHT22;40936;53.008;6.556;2022-08-25T02:54:57;18.90;99.90
55036;DHT22;40936;53.008;6.556;2022-08-25T02:57:23;18.90;99.90
55036;DHT22;40936;53.008;6.556;2022-08-25T02:59:49;18.90;99.90
55036;DHT22;40936;53.008;6.556;2022-08-25T03:02:16;18.90;99.90
55036;DHT22;40936;53.008;6.556;2022-08-25T03:04:42;18.90;99.90
55036;DHT22;40936;53.008;6.556;2022-08-25T03:07:09;18.90;99.90
55036;DHT22;40936;53.008;6.556;2022-08-25T03:09:35;18.90;99.90
55036;DHT22;40936;53.008;6.556;2022-08-25T03:12:02;18.90;99.90
55036;DHT22;40936;53.008;6.556;2022-08-25T03:14:28;18.90;99.90
55036;DHT22;40936;53.008;6.556;2022-08-25T03:16:55;18.90;99.90
55036;DHT22;40936;53.008;6.556;2022-08-25T03:19:21;18.30;99.90
55036;DHT22;40936;53.008;6.556;2022-08-25T03:21:46;18.80;99.90
55036;DHT22;40936;53.008;6.556;2022-08-25T03:24:13;18.80;99.90
55036;DHT22;40936;53.008;6.556;2022-08-25T03:26:38;18.80;99.90
55036;DHT22;40936;53.008;6.556;2022-08-25T03:29:26;18.80;99.90
55036;DHT22;40936;53.008;6.556;2022-08-25T03:31:53;18.70;99.90
55036;DHT22;40936;53.008;6.556;2022-08-25T03:34:21;18.70;99.90
55036;DHT22;40936;53.008;6.556;2022-08-25T03:36:50;18.70;99.90
55036;DHT22;40936;53.008;6.556;2022-08-25T03:39:18;18.60;99.90
55036;DHT22;40936;53.008;6.556;2022-08-25T03:41:45;18.60;99.90
55036;DHT22;40936;53.008;6.556;2022-08-25T03:44:12;18.50;99.90
55036;DHT22;40936;53.008;6.556;2022-08-25T03:46:43;18.50;99.90
55036;DHT22;40936;53.008;6.556;2022-08-25T03:49:13;18.50;99.90
55036;DHT22;40936;53.008;6.556;2022-08-25T03:51:45;18.40;99.90
55036;DHT22;40936;53.008;6.556;2022-08-25T03:54:16;18.40;99.90
55036;DHT22;40936;53.008;6.556;2022-08-25T03:56:43;18.40;99.90
55036;DHT22;40936;53.008;6.556;2022-08-25T03:59:09;18.40;99.90
55036;DHT22;40936;53.008;6.556;2022-08-25T04:01:36;18.40;99.90
55036;DHT22;40936;53.008;6.556;2022-08-25T04:04:02;18.30;99.90
55036;DHT22;40936;53.008;6.556;2022-08-25T04:06:29;18.30;99.90
55036;DHT22;40936;53.008;6.556;2022-08-25T04:08:55;18.30;99.90
55036;DHT22;40936;53.008;6.556;2022-08-25T04:11:23;18.30;99.90
55036;DHT22;40936;53.008;6.556;2022-08-25T04:13:51;18.20;99.90
55036;DHT22;40936;53.008;6.556;2022-08-25T04:16:20;18.20;99.90
55036;DHT22;40936;53.008;6.556;2022-08-25T04:18:47;18.20;99.90
55036;DHT22;40936;53.008;6.556;2022-08-25T04:21:14;18.20;99.90
55036;DHT22;40936;53.008;6.556;2022-08-25T04:23:43;18.10;99.90
55036;DHT22;40936;53.008;6.556;2022-08-25T04:26:13;18.10;99.90
55036;DHT22;40936;53.008;6.556;2022-08-25T04:28:40;18.10;99.90
55036;DHT22;40936;53.008;6.556;2022-08-25T04:31:10;18.10;99.90
55036;DHT22;40936;53.008;6.556;2022-08-25T04:33:37;18.00;99.90
55036;DHT22;40936;53.008;6.556;2022-08-25T04:36:04;18.00;99.90
55036;DHT22;40936;53.008;6.556;2022-08-25T04:38:31;18.00;99.90
55036;DHT22;40936;53.008;6.556;2022-08-25T04:40:59;18.00;99.90
55036;DHT22;40936;53.008;6.556;2022-08-25T04:43:25;18.00;99.90
55036;DHT22;40936;53.008;6.556;2022-08-25T04:45:52;18.00;99.90
55036;DHT22;40936;53.008;6.556;2022-08-25T04:48:18;18.00;99.90
55036;DHT22;40936;53.008;6.556;2022-08-25T04:50:45;18.00;99.90
55036;DHT22;40936;53.008;6.556;2022-08-25T04:53:11;18.00;99.90
55036;DHT22;40936;53.008;6.556;2022-08-25T04:55:44;17.90;99.90
55036;DHT22;40936;53.008;6.556;2022-08-25T04:58:11;18.00;99.90
55036;DHT22;40936;53.008;6.556;2022-08-25T05:00:37;17.90;99.90
55036;DHT22;40936;53.008;6.556;2022-08-25T05:03:04;18.00;99.90
55036;DHT22;40936;53.008;6.556;2022-08-25T05:05:30;18.00;99.90
55036;DHT22;40936;53.008;6.556;2022-08-25T05:07:56;17.20;99.90
55036;DHT22;40936;53.008;6.556;2022-08-25T05:10:22;18.00;99.90
55036;DHT22;40936;53.008;6.556;2022-08-25T05:12:49;18.00;99.90
55036;DHT22;40936;53.008;6.556;2022-08-25T05:15:14;18.10;99.90
55036;DHT22;40936;53.008;6.556;2022-08-25T05:17:59;18.10;99.90
55036;DHT22;40936;53.008;6.556;2022-08-25T05:20:25;17.60;99.90
55036;DHT22;40936;53.008;6.556;2022-08-25T05:22:51;18.10;99.90
55036;DHT22;40936;53.008;6.556;2022-08-25T05:25:17;18.10;99.90
55036;DHT22;40936;53.008;6.556;2022-08-25T05:27:43;18.10;99.90
55036;DHT22;40936;53.008;6.556;2022-08-25T05:30:10;18.20;99.90
55036;DHT22;40936;53.008;6.556;2022-08-25T05:32:36;18.10;99.90
55036;DHT22;40936;53.008;6.556;2022-08-25T05:35:04;18.20;99.90
55036;DHT22;40936;53.008;6.556;2022-08-25T05:37:30;18.20;99.90
55036;DHT22;40936;53.008;6.556;2022-08-25T05:39:56;18.20;99.90
55036;DHT22;40936;53.008;6.556;2022-08-25T05:42:21;18.30;99.90
55036;DHT22;40936;53.008;6.556;2022-08-25T05:44:48;18.30;99.90
55036;DHT22;40936;53.008;6.556;2022-08-25T05:47:14;18.30;99.90
55036;DHT22;40936;53.008;6.556;2022-08-25T05:49:39;18.30;99.90
55036;DHT22;40936;53.008;6.556;2022-08-25T05:52:05;18.40;99.90
55036;DHT22;40936;53.008;6.556;2022-08-25T05:54:34;18.40;99.90
55036;DHT22;40936;53.008;6.556;2022-08-25T05:57:00;18.40;99.90
55036;DHT22;40936;53.008;6.556;2022-08-25T05:59:25;18.40;99.90
55036;DHT22;40936;53.008;6.556;2022-08-25T06:01:51;17.30;99.90
55036;DHT22;40936;53.008;6.556;2022-08-25T06:04:36;17.20;99.90
55036;DHT22;40936;53.008;6.556;2022-08-25T06:07:01;18.60;99.90
55036;DHT22;40936;53.008;6.556;2022-08-25T06:09:27;17.40;99.90
55036;DHT22;40936;53.008;6.556;2022-08-25T06:11:53;18.80;99.90
55036;DHT22;40936;53.008;6.556;2022-08-25T06:14:19;18.90;99.90
55036;DHT22;40936;53.008;6.556;2022-08-25T06:16:45;19.00;99.90
55036;DHT22;40936;53.008;6.556;2022-08-25T06:19:13;20.30;99.90
55036;DHT22;40936;53.008;6.556;2022-08-25T06:21:39;19.10;99.90
55036;DHT22;40936;53.008;6.556;2022-08-25T06:24:06;19.20;99.90
55036;DHT22;40936;53.008;6.556;2022-08-25T06:26:33;19.20;99.90
55036;DHT22;40936;53.008;6.556;2022-08-25T06:28:59;19.40;99.90
55036;DHT22;40936;53.008;6.556;2022-08-25T06:31:24;19.50;99.90
55036;DHT22;40936;53.008;6.556;2022-08-25T06:33:51;19.60;99.90
55036;DHT22;40936;53.008;6.556;2022-08-25T06:36:17;19.60;99.90
55036;DHT22;40936;53.008;6.556;2022-08-25T06:38:44;19.70;99.90
55036;DHT22;40936;53.008;6.556;2022-08-25T06:41:10;19.80;99.90
55036;DHT22;40936;53.008;6.556;2022-08-25T06:43:38;19.80;99.90
55036;DHT22;40936;53.008;6.556;2022-08-25T06:46:18;19.70;99.90
55036;DHT22;40936;53.008;6.556;2022-08-25T06:48:44;19.40;99.90
55036;DHT22;40936;53.008;6.556;2022-08-25T06:51:12;19.90;99.90
55036;DHT22;40936;53.008;6.556;2022-08-25T06:53:38;20.00;99.90
55036;DHT22;40936;53.008;6.556;2022-08-25T06:56:04;20.20;99.90
55036;DHT22;40936;53.008;6.556;2022-08-25T06:58:31;20.50;99.90
55036;DHT22;40936;53.008;6.556;2022-08-25T07:01:11;20.80;99.90
55036;DHT22;40936;53.008;6.556;2022-08-25T07:03:37;20.90;99.90
55036;DHT22;40936;53.008;6.556;2022-08-25T07:06:06;21.10;99.90
55036;DHT22;40936;53.008;6.556;2022-08-25T07:08:32;21.10;99.90
55036;DHT22;40936;53.008;6.556;2022-08-25T07:11:04;21.30;99.90
55036;DHT22;40936;53.008;6.556;2022-08-25T07:13:30;21.40;99.90
55036;DHT22;40936;53.008;6.556;2022-08-25T07:15:56;21.50;99.90
55036;DHT22;40936;53.008;6.556;2022-08-25T07:18:22;21.60;99.90
55036;DHT22;40936;53.008;6.556;2022-08-25T07:20:48;21.80;99.90
55036;DHT22;40936;53.008;6.556;2022-08-25T07:23:16;21.90;99.90
55036;DHT22;40936;53.008;6.556;2022-08-25T07:25:42;22.00;99.90
55036;DHT22;40936;53.008;6.556;2022-08-25T07:28:08;22.10;99.90
55036;DHT22;40936;53.008;6.556;2022-08-25T07:30:37;22.20;99.90
55036;DHT22;40936;53.008;6.556;2022-08-25T07:33:03;23.00;99.90
55036;DHT22;40936;53.008;6.556;2022-08-25T07:35:28;24.70;92.50
55036;DHT22;40936;53.008;6.556;2022-08-25T07:37:58;26.20;27.20
55036;DHT22;40936;53.008;6.556;2022-08-25T07:40:32;27.40;1.00
55036;DHT22;40936;53.008;6.556;2022-08-25T07:43:04;28.40;1.00
55036;DHT22;40936;53.008;6.556;2022-08-25T07:45:35;29.10;1.00
55036;DHT22;40936;53.008;6.556;2022-08-25T07:48:07;29.60;1.00
55036;DHT22;40936;53.008;6.556;2022-08-25T07:50:39;30.30;1.00
55036;DHT22;40936;53.008;6.556;2022-08-25T07:53:07;31.30;1.00
55036;DHT22;40936;53.008;6.556;2022-08-25T07:55:33;30.80;1.00
55036;DHT22;40936;53.008;6.556;2022-08-25T07:58:04;31.30;1.00
55036;DHT22;40936;53.008;6.556;2022-08-25T08:00:34;31.80;1.00
55036;DHT22;40936;53.008;6.556;2022-08-25T08:03:03;32.70;1.00
55036;DHT22;40936;53.008;6.556;2022-08-25T08:05:33;32.80;1.00
55036;DHT22;40936;53.008;6.556;2022-08-25T08:08:01;33.00;1.00
55036;DHT22;40936;53.008;6.556;2022-08-25T08:10:27;33.00;1.00
55036;DHT22;40936;53.008;6.556;2022-08-25T08:12:53;32.90;1.00
55036;DHT22;40936;53.008;6.556;2022-08-25T08:15:19;33.00;1.00
55036;DHT22;40936;53.008;6.556;2022-08-25T08:17:45;33.10;1.00
55036;DHT22;40936;53.008;6.556;2022-08-25T08:20:11;33.20;1.00
55036;DHT22;40936;53.008;6.556;2022-08-25T08:22:39;33.40;1.00
55036;DHT22;40936;53.008;6.556;2022-08-25T08:25:07;33.80;1.00
55036;DHT22;40936;53.008;6.556;2022-08-25T08:27:36;33.60;1.00
55036;DHT22;40936;53.008;6.556;2022-08-25T08:30:05;34.30;1.00
55036;DHT22;40936;53.008;6.556;2022-08-25T08:32:31;34.70;1.00
55036;DHT22;40936;53.008;6.556;2022-08-25T08:35:00;34.40;1.00
55036;DHT22;40936;53.008;6.556;2022-08-25T08:37:26;35.10;1.00
55036;DHT22;40936;53.008;6.556;2022-08-25T08:39:52;34.20;1.00
55036;DHT22;40936;53.008;6.556;2022-08-25T08:42:39;35.40;1.00
55036;DHT22;40936;53.008;6.556;2022-08-25T08:53:17;36.80;99.90
55036;DHT22;40936;53.008;6.556;2022-08-25T08:55:47;37.60;99.90
55036;DHT22;40936;53.008;6.556;2022-08-25T08:58:22;37.40;99.90
55036;DHT22;40936;53.008;6.556;2022-08-25T09:00:54;37.10;99.90
55036;DHT22;40936;53.008;6.556;2022-08-25T09:03:40;37.60;99.90
55036;DHT22;40936;53.008;6.556;2022-08-25T09:06:35;38.20;99.90
55036;DHT22;40936;53.008;6.556;2022-08-25T09:09:04;37.70;99.90
55036;DHT22;40936;53.008;6.556;2022-08-25T09:11:51;37.70;99.90
55036;DHT22;40936;53.008;6.556;2022-08-25T09:14:41;37.30;99.90
55036;DHT22;40936;53.008;6.556;2022-08-25T09:26:36;39.30;99.90
55036;DHT22;40936;53.008;6.556;2022-08-25T09:28:58;39.80;99.90
55036;DHT22;40936;53.008;6.556;2022-08-25T09:31:39;39.40;99.90
55036;DHT22;40936;53.008;6.556;2022-08-25T09:34:12;39.00;99.90
55036;DHT22;40936;53.008;6.556;2022-08-25T09:36:40;39.40;99.90
55036;DHT22;40936;53.008;6.556;2022-08-25T09:39:07;39.50;99.90
55036;DHT22;40936;53.008;6.556;2022-08-25T09:44:39;38.60;99.90
55036;DHT22;40936;53.008;6.556;2022-08-25T09:47:24;38.40;99.90
55036;DHT22;40936;53.008;6.556;2022-08-25T09:50:00;38.80;99.90
55036;DHT22;40936;53.008;6.556;2022-08-25T09:52:36;38.30;99.90
55036;DHT22;40936;53.008;6.556;2022-08-25T10:02:39;38.00;99.90
55036;DHT22;40936;53.008;6.556;2022-08-25T10:05:21;38.20;99.90
55036;DHT22;40936;53.008;6.556;2022-08-25T10:07:52;38.60;99.90
55036;DHT22;40936;53.008;6.556;2022-08-25T10:10:33;38.20;99.90
55036;DHT22;40936;53.008;6.556;2022-08-25T10:13:00;38.50;99.90
55036;DHT22;40936;53.008;6.556;2022-08-25T10:15:33;39.00;99.90
55036;DHT22;40936;53.008;6.556;2022-08-25T10:18:24;38.90;99.90
55036;DHT22;40936;53.008;6.556;2022-08-25T10:23:30;39.50;99.90
55036;DHT22;40936;53.008;6.556;2022-08-25T10:26:00;39.10;99.90
55036;DHT22;40936;53.008;6.556;2022-08-25T10:39:40;38.80;99.90
55036;DHT22;40936;53.008;6.556;2022-08-25T10:42:26;38.90;99.90
55036;DHT22;40936;53.008;6.556;2022-08-25T10:45:14;39.60;99.90
55036;DHT22;40936;53.008;6.556;2022-08-25T10:50:42;39.60;99.90
55036;DHT22;40936;53.008;6.556;2022-08-25T10:56:09;41.20;99.90
55036;DHT22;40936;53.008;6.556;2022-08-25T10:58:58;41.10;99.90
55036;DHT22;40936;53.008;6.556;2022-08-25T11:07:05;41.50;99.90
55036;DHT22;40936;53.008;6.556;2022-08-25T11:09:36;41.80;99.90
55036;DHT22;40936;53.008;6.556;2022-08-25T11:12:11;41.90;99.90
55036;DHT22;40936;53.008;6.556;2022-08-25T11:14:47;41.60;99.90
55036;DHT22;40936;53.008;6.556;2022-08-25T11:19:59;41.70;99.90
55036;DHT22;40936;53.008;6.556;2022-08-25T11:22:41;41.80;99.90
55036;DHT22;40936;53.008;6.556;2022-08-25T11:25:27;41.70;99.90
55036;DHT22;40936;53.008;6.556;2022-08-25T11:27:59;40.50;99.90
55036;DHT22;40936;53.008;6.556;2022-08-25T11:30:28;40.00;99.90
55036;DHT22;40936;53.008;6.556;2022-08-25T11:32:54;40.50;99.90
55036;DHT22;40936;53.008;6.556;2022-08-25T11:35:38;40.50;99.90
55036;DHT22;40936;53.008;6.556;2022-08-25T11:57:30;40.70;99.90
55036;DHT22;40936;53.008;6.556;2022-08-25T12:02:50;41.70;99.90
55036;DHT22;40936;53.008;6.556;2022-08-25T12:07:56;40.80;99.90
55036;DHT22;40936;53.008;6.556;2022-08-25T12:11:02;41.20;99.90
55036;DHT22;40936;53.008;6.556;2022-08-25T12:13:47;40.30;99.90
55036;DHT22;40936;53.008;6.556;2022-08-25T12:16:40;39.60;99.90
55036;DHT22;40936;53.008;6.556;2022-08-25T12:30:58;36.50;99.90
55036;DHT22;40936;53.008;6.556;2022-08-25T12:33:09;35.80;99.90
55036;DHT22;40936;53.008;6.556;2022-08-25T12:35:58;35.30;99.90
55036;DHT22;40936;53.008;6.556;2022-08-25T12:41:15;34.70;99.90
55036;DHT22;40936;53.008;6.556;2022-08-25T12:43:46;34.40;99.90
55036;DHT22;40936;53.008;6.556;2022-08-25T12:49:30;34.00;99.90
55036;DHT22;40936;53.008;6.556;2022-08-25T12:52:17;33.80;99.90
55036;DHT22;40936;53.008;6.556;2022-08-25T12:54:54;33.70;99.90
55036;DHT22;40936;53.008;6.556;2022-08-25T12:59:58;33.50;99.90
55036;DHT22;40936;53.008;6.556;2022-08-25T13:13:18;33.10;99.90
55036;DHT22;40936;53.008;6.556;2022-08-25T13:16:06;32.90;99.90
55036;DHT22;40936;53.008;6.556;2022-08-25T13:18:37;32.80;99.90
55036;DHT22;40936;53.008;6.556;2022-08-25T13:21:19;32.80;99.90
55036;DHT22;40936;53.008;6.556;2022-08-25T13:23:50;32.70;99.90
55036;DHT22;40936;53.008;6.556;2022-08-25T13:26:26;32.70;99.90
55036;DHT22;40936;53.008;6.556;2022-08-25T13:29:22;32.50;99.90
55036;DHT22;40936;53.008;6.556;2022-08-25T13:31:58;32.50;99.90
55036;DHT22;40936;53.008;6.556;2022-08-25T13:34:34;32.30;99.90
55036;DHT22;40936;53.008;6.556;2022-08-25T13:37:08;32.20;99.90
55036;DHT22;40936;53.008;6.556;2022-08-25T13:40:25;32.20;99.90
55036;DHT22;40936;53.008;6.556;2022-08-25T13:42:55;32.10;99.90
55036;DHT22;40936;53.008;6.556;2022-08-25T13:45:24;32.10;99.90
55036;DHT22;40936;53.008;6.556;2022-08-25T13:47:52;31.90;99.90
55036;DHT22;40936;53.008;6.556;2022-08-25T13:55:28;31.90;99.90
55036;DHT22;40936;53.008;6.556;2022-08-25T13:57:57;31.90;99.90
55036;DHT22;40936;53.008;6.556;2022-08-25T14:00:32;31.80;99.90
55036;DHT22;40936;53.008;6.556;2022-08-25T14:03:01;31.70;99.90
55036;DHT22;40936;53.008;6.556;2022-08-25T14:05:40;31.70;99.90
55036;DHT22;40936;53.008;6.556;2022-08-25T14:08:28;31.60;99.90
55036;DHT22;40936;53.008;6.556;2022-08-25T14:11:27;31.60;99.90
55036;DHT22;40936;53.008;6.556;2022-08-25T14:13:43;31.50;99.90
55036;DHT22;40936;53.008;6.556;2022-08-25T14:16:18;31.50;99.90
55036;DHT22;40936;53.008;6.556;2022-08-25T14:18:49;31.50;99.90
55036;DHT22;40936;53.008;6.556;2022-08-25T14:21:17;31.50;99.90
55036;DHT22;40936;53.008;6.556;2022-08-25T14:23:43;31.40;99.90
55036;DHT22;40936;53.008;6.556;2022-08-25T14:26:09;31.40;99.90
55036;DHT22;40936;53.008;6.556;2022-08-25T14:28:35;31.40;99.90
55036;DHT22;40936;53.008;6.556;2022-08-25T14:33:36;31.30;99.90
55036;DHT22;40936;53.008;6.556;2022-08-25T14:36:03;31.30;99.90
55036;DHT22;40936;53.008;6.556;2022-08-25T14:38:30;31.20;99.90
55036;DHT22;40936;53.008;6.556;2022-08-25T14:40:56;31.20;99.90
55036;DHT22;40936;53.008;6.556;2022-08-25T14:43:22;31.20;99.90
55036;DHT22;40936;53.008;6.556;2022-08-25T14:45:48;31.20;99.90
55036;DHT22;40936;53.008;6.556;2022-08-25T14:48:23;31.20;99.90
55036;DHT22;40936;53.008;6.556;2022-08-25T14:50:50;31.20;99.90
55036;DHT22;40936;53.008;6.556;2022-08-25T14:53:16;31.10;99.90
55036;DHT22;40936;53.008;6.556;2022-08-25T14:55:42;31.10;99.90
55036;DHT22;40936;53.008;6.556;2022-08-25T14:58:07;31.10;99.90
55036;DHT22;40936;53.008;6.556;2022-08-25T15:00:36;31.10;99.90
55036;DHT22;40936;53.008;6.556;2022-08-25T15:03:04;31.10;99.90
55036;DHT22;40936;53.008;6.556;2022-08-25T15:05:30;31.10;99.90
55036;DHT22;40936;53.008;6.556;2022-08-25T15:07:56;31.10;99.90
55036;DHT22;40936;53.008;6.556;2022-08-25T15:10:40;31.10;99.90
55036;DHT22;40936;53.008;6.556;2022-08-25T15:13:06;31.00;99.90
55036;DHT22;40936;53.008;6.556;2022-08-25T15:15:38;31.10;99.90
55036;DHT22;40936;53.008;6.556;2022-08-25T15:18:04;31.00;99.90
55036;DHT22;40936;53.008;6.556;2022-08-25T15:20:30;30.90;99.90
55036;DHT22;40936;53.008;6.556;2022-08-25T15:22:56;31.00;99.90
55036;DHT22;40936;53.008;6.556;2022-08-25T15:25:21;30.90;99.90
55036;DHT22;40936;53.008;6.556;2022-08-25T15:27:47;30.90;99.90
55036;DHT22;40936;53.008;6.556;2022-08-25T15:30:13;30.80;99.90
55036;DHT22;40936;53.008;6.556;2022-08-25T15:32:39;30.80;99.90
55036;DHT22;40936;53.008;6.556;2022-08-25T15:35:06;30.80;99.90
55036;DHT22;40936;53.008;6.556;2022-08-25T15:37:31;30.80;99.90
55036;DHT22;40936;53.008;6.556;2022-08-25T15:40:00;30.80;99.90
55036;DHT22;40936;53.008;6.556;2022-08-25T15:42:26;30.80;99.90
55036;DHT22;40936;53.008;6.556;2022-08-25T15:44:52;30.80;99.90
55036;DHT22;40936;53.008;6.556;2022-08-25T15:47:18;30.70;99.90
55036;DHT22;40936;53.008;6.556;2022-08-25T15:49:44;30.70;99.90
55036;DHT22;40936;53.008;6.556;2022-08-25T15:52:09;30.70;99.90
55036;DHT22;40936;53.008;6.556;2022-08-25T15:54:38;30.60;99.90
55036;DHT22;40936;53.008;6.556;2022-08-25T15:57:03;30.60;99.90
55036;DHT22;40936;53.008;6.556;2022-08-25T15:59:30;30.60;99.90
55036;DHT22;40936;53.008;6.556;2022-08-25T16:01:56;30.60;99.90
55036;DHT22;40936;53.008;6.556;2022-08-25T16:04:23;30.50;99.90
55036;DHT22;40936;53.008;6.556;2022-08-25T16:06:49;30.50;99.90
55036;DHT22;40936;53.008;6.556;2022-08-25T16:09:16;30.40;99.90
55036;DHT22;40936;53.008;6.556;2022-08-25T16:11:42;30.40;99.90
55036;DHT22;40936;53.008;6.556;2022-08-25T16:14:09;30.40;99.90
55036;DHT22;40936;53.008;6.556;2022-08-25T16:16:36;30.30;99.90
55036;DHT22;40936;53.008;6.556;2022-08-25T16:19:03;30.20;99.90
55036;DHT22;40936;53.008;6.556;2022-08-25T16:21:33;30.10;99.90
55036;DHT22;40936;53.008;6.556;2022-08-25T16:24:04;30.10;99.90
55036;DHT22;40936;53.008;6.556;2022-08-25T16:26:31;30.10;99.90
55036;DHT22;40936;53.008;6.556;2022-08-25T16:28:57;30.10;99.90
55036;DHT22;40936;53.008;6.556;2022-08-25T16:31:23;30.10;99.90
55036;DHT22;40936;53.008;6.556;2022-08-25T16:33:49;30.00;99.90
55036;DHT22;40936;53.008;6.556;2022-08-25T16:36:18;30.00;99.90
55036;DHT22;40936;53.008;6.556;2022-08-25T16:38:45;30.00;99.90
55036;DHT22;40936;53.008;6.556;2022-08-25T16:41:14;30.00;99.90
55036;DHT22;40936;53.008;6.556;2022-08-25T16:43:41;30.00;99.90
55036;DHT22;40936;53.008;6.556;2022-08-25T16:46:08;30.00;99.90
55036;DHT22;40936;53.008;6.556;2022-08-25T16:48:35;29.80;99.90
55036;DHT22;40936;53.008;6.556;2022-08-25T16:51:10;29.90;99.90
55036;DHT22;40936;53.008;6.556;2022-08-25T16:53:36;29.90;99.90
55036;DHT22;40936;53.008;6.556;2022-08-25T16:56:21;29.80;99.90
55036;DHT22;40936;53.008;6.556;2022-08-25T16:58:51;29.70;99.90
55036;DHT22;40936;53.008;6.556;2022-08-25T17:01:18;29.70;99.90
55036;DHT22;40936;53.008;6.556;2022-08-25T17:03:45;29.60;99.90
55036;DHT22;40936;53.008;6.556;2022-08-25T17:06:11;29.60;99.90
55036;DHT22;40936;53.008;6.556;2022-08-25T17:08:39;29.40;99.90
55036;DHT22;40936;53.008;6.556;2022-08-25T17:11:09;29.40;99.90
55036;DHT22;40936;53.008;6.556;2022-08-25T17:13:37;29.30;99.90
55036;DHT22;40936;53.008;6.556;2022-08-25T17:16:03;29.30;99.90
55036;DHT22;40936;53.008;6.556;2022-08-25T17:18:29;29.20;99.90
55036;DHT22;40936;53.008;6.556;2022-08-25T17:21:05;29.10;99.90
55036;DHT22;40936;53.008;6.556;2022-08-25T17:23:32;29.10;99.90
55036;DHT22;40936;53.008;6.556;2022-08-25T17:25:59;29.10;99.90
55036;DHT22;40936;53.008;6.556;2022-08-25T17:28:25;29.00;99.90
55036;DHT22;40936;53.008;6.556;2022-08-25T17:30:52;29.00;99.90
55036;DHT22;40936;53.008;6.556;2022-08-25T17:33:19;28.90;99.90
55036;DHT22;40936;53.008;6.556;2022-08-25T17:35:48;28.80;99.90
55036;DHT22;40936;53.008;6.556;2022-08-25T17:38:16;28.80;99.90
55036;DHT22;40936;53.008;6.556;2022-08-25T17:40:42;28.70;99.90
55036;DHT22;40936;53.008;6.556;2022-08-25T17:43:08;28.60;99.90
55036;DHT22;40936;53.008;6.556;2022-08-25T17:45:34;28.60;99.90
55036;DHT22;40936;53.008;6.556;2022-08-25T17:48:00;29.30;99.90
55036;DHT22;40936;53.008;6.556;2022-08-25T17:50:26;28.40;99.90
55036;DHT22;40936;53.008;6.556;2022-08-25T17:52:52;28.30;99.90